Aérodrome :
LOGIN :

S'inscrire | Disclaimer

   EN    FR    IT 

 










Légende :    VFR   VFR Marginal   IFR   IFR Intensif   IFR Très Intensif
Visi : 
Plafond : 
>= 8 km
>= 3000ft
5 à 8 km
1000 à 3000 ft
1500m à 5 km
500 à 1000 ft
800 à 1500m
200 à 500 ft
< 800m
< 200 ft
Symboles :   Orages  Brouillard  Fortes neiges  Fortes précipitations  Vent > 20 kt
SIGMETs :   Divers  Orages  Givrage  Turbulence  Onde Orograph.  Cendres Volcan.







- Altitude de l'aérodrome : 2096 ft
- Code IATA : AUR
- Voir les cartes d'approche


LFLW - Aurillac

DERNIER METAR :
  • 220030Z AUTO 29003KT 9999 OVC021 16/15 Q1016

METARs EXPIRÉS :
  • 220000Z AUTO 29002KT 9999 BKN020 OVC026 16/15 Q1016
  • 212330Z AUTO VRB03KT 9999 SCT021 BKN027 16/14 Q1016
  • 212300Z AUTO 29005KT 9999 BKN008 OVC021 16/15 Q1016
  • 212230Z AUTO 30005KT 9999 BKN010/// BKN016/// OVC027/// ///TCU 17/15 Q1015
  • 212200Z AUTO 28004KT 9999 OVC025 17/16 Q1015

Prévision TAF périmée.
Pas de NOTAMs connus pour ce terrain.



MET'MAP, la Météo Aéronautique d'un coup d'oeil ! - Copyright ORBIFLY Décembre 2007 - Disclaimer

ORBIFLY MET'MAP TEAM :

Programmation & Développement : Alexandra Zaïnal
Conception & Développement : Baudouin d'Aumeries
Co-Programmation & Développement : Marc-Olivier Méhu
Soutien technique & logistique : Manuel Goepfert

Contact : metmap@orbifly.com




SOURCES & CREDITS :

   NOAA